Kinston, Alabama
Current Conditions -  °F | °C
As of 9:58 AM on Friday 24 Oct 2014 (Local Time) from K0J4 Reporting Station
Light Rain Light Rain  
Wind Chill: 66°   Ceiling: Unl
Heat Index: 66°   Visibility: 10mi
Dew Point: 47°   Wind: 5mph
Humidity: 50%   Direction: 40°NE
Pressure: 30.1"   Gusts: NA
Location:  31.22°N, 86.17°W
Report Text: K0J4 241458Z AUTO 04004KT 10SM -RA CLR 19/08 A3010 RMK AO2 RAB01 SLP190 P0000 60000 T01890083 53005 $
Loading
Personal Weather Stations






























Interactive Weather Map
Tropical Storm Tracking
New forecast layout! Learn more

10-Day Weather Forecast

Advertisements
Track Severe Weather on mobile